sensor_id;sensor_type;location;lat;lon;timestamp;P1;durP1;ratioP1;P2;durP2;ratioP2
19257;SDS011;9763;48.780;9.212;2024-03-22T00:02:48;4.20;;;3.80;;
19257;SDS011;9763;48.780;9.212;2024-03-22T00:06:11;4.23;;;3.80;;
19257;SDS011;9763;48.780;9.212;2024-03-22T00:09:34;5.33;;;4.80;;
19257;SDS011;9763;48.780;9.212;2024-03-22T00:12:56;5.73;;;3.60;;
19257;SDS011;9763;48.780;9.212;2024-03-22T00:16:19;4.63;;;3.70;;
19257;SDS011;9763;48.780;9.212;2024-03-22T00:19:41;3.43;;;3.13;;
19257;SDS011;9763;48.780;9.212;2024-03-22T00:23:04;5.27;;;4.20;;
19257;SDS011;9763;48.780;9.212;2024-03-22T00:26:27;4.43;;;3.87;;
19257;SDS011;9763;48.780;9.212;2024-03-22T00:29:49;4.23;;;3.83;;
19257;SDS011;9763;48.780;9.212;2024-03-22T00:33:11;4.07;;;3.60;;
19257;SDS011;9763;48.780;9.212;2024-03-22T00:36:34;4.40;;;4.00;;
19257;SDS011;9763;48.780;9.212;2024-03-22T00:39:55;4.80;;;4.27;;
19257;SDS011;9763;48.780;9.212;2024-03-22T00:43:20;5.00;;;4.40;;
19257;SDS011;9763;48.780;9.212;2024-03-22T00:46:42;4.53;;;4.13;;
19257;SDS011;9763;48.780;9.212;2024-03-22T00:50:06;4.70;;;3.33;;
19257;SDS011;9763;48.780;9.212;2024-03-22T00:53:28;4.27;;;3.60;;
19257;SDS011;9763;48.780;9.212;2024-03-22T00:56:51;4.40;;;4.00;;
19257;SDS011;9763;48.780;9.212;2024-03-22T01:00:15;4.20;;;3.73;;
19257;SDS011;9763;48.780;9.212;2024-03-22T01:03:38;7.43;;;4.30;;
19257;SDS011;9763;48.780;9.212;2024-03-22T01:07:01;4.20;;;3.80;;
19257;SDS011;9763;48.780;9.212;2024-03-22T01:10:22;4.30;;;3.90;;
19257;SDS011;9763;48.780;9.212;2024-03-22T01:13:45;4.93;;;4.33;;
19257;SDS011;9763;48.780;9.212;2024-03-22T01:17:09;3.70;;;3.30;;
19257;SDS011;9763;48.780;9.212;2024-03-22T01:20:31;3.97;;;3.57;;
19257;SDS011;9763;48.780;9.212;2024-03-22T01:23:53;4.30;;;3.90;;
19257;SDS011;9763;48.780;9.212;2024-03-22T01:27:16;4.27;;;3.87;;
19257;SDS011;9763;48.780;9.212;2024-03-22T01:30:37;3.90;;;3.50;;
19257;SDS011;9763;48.780;9.212;2024-03-22T01:34:01;4.23;;;3.83;;
19257;SDS011;9763;48.780;9.212;2024-03-22T01:37:25;5.00;;;4.50;;
19257;SDS011;9763;48.780;9.212;2024-03-22T01:40:46;4.57;;;4.10;;
19257;SDS011;9763;48.780;9.212;2024-03-22T01:44:09;5.10;;;3.97;;
19257;SDS011;9763;48.780;9.212;2024-03-22T01:47:31;5.10;;;4.40;;
19257;SDS011;9763;48.780;9.212;2024-03-22T01:50:55;3.90;;;3.27;;
19257;SDS011;9763;48.780;9.212;2024-03-22T01:54:19;3.83;;;3.33;;
19257;SDS011;9763;48.780;9.212;2024-03-22T01:57:42;5.37;;;4.10;;
19257;SDS011;9763;48.780;9.212;2024-03-22T02:01:07;4.50;;;3.70;;
19257;SDS011;9763;48.780;9.212;2024-03-22T02:04:29;4.07;;;3.60;;
19257;SDS011;9763;48.780;9.212;2024-03-22T02:07:53;5.80;;;3.03;;
19257;SDS011;9763;48.780;9.212;2024-03-22T02:11:16;4.07;;;3.47;;
19257;SDS011;9763;48.780;9.212;2024-03-22T02:14:38;4.00;;;3.27;;
19257;SDS011;9763;48.780;9.212;2024-03-22T02:18:01;4.03;;;3.37;;
19257;SDS011;9763;48.780;9.212;2024-03-22T02:21:23;3.70;;;3.10;;
19257;SDS011;9763;48.780;9.212;2024-03-22T02:24:47;4.53;;;3.17;;
19257;SDS011;9763;48.780;9.212;2024-03-22T02:28:08;4.57;;;3.67;;
19257;SDS011;9763;48.780;9.212;2024-03-22T02:31:31;6.00;;;3.37;;
19257;SDS011;9763;48.780;9.212;2024-03-22T02:34:54;5.00;;;3.63;;
19257;SDS011;9763;48.780;9.212;2024-03-22T02:38:16;3.37;;;3.07;;
19257;SDS011;9763;48.780;9.212;2024-03-22T02:41:41;3.67;;;3.03;;
19257;SDS011;9763;48.780;9.212;2024-03-22T02:45:03;3.43;;;3.13;;
19257;SDS011;9763;48.780;9.212;2024-03-22T02:48:27;5.20;;;3.40;;
19257;SDS011;9763;48.780;9.212;2024-03-22T02:51:50;3.40;;;3.10;;
19257;SDS011;9763;48.780;9.212;2024-03-22T02:55:13;3.30;;;3.00;;
19257;SDS011;9763;48.780;9.212;2024-03-22T02:58:36;4.43;;;3.20;;
19257;SDS011;9763;48.780;9.212;2024-03-22T03:01:58;3.40;;;3.10;;
19257;SDS011;9763;48.780;9.212;2024-03-22T03:05:21;3.87;;;3.40;;
19257;SDS011;9763;48.780;9.212;2024-03-22T03:08:44;4.00;;;3.60;;
19257;SDS011;9763;48.780;9.212;2024-03-22T03:12:07;4.07;;;3.50;;
19257;SDS011;9763;48.780;9.212;2024-03-22T03:15:30;3.47;;;3.17;;
19257;SDS011;9763;48.780;9.212;2024-03-22T03:18:52;3.90;;;3.23;;
19257;SDS011;9763;48.780;9.212;2024-03-22T03:22:14;4.57;;;3.50;;
19257;SDS011;9763;48.780;9.212;2024-03-22T03:25:37;3.30;;;2.93;;
19257;SDS011;9763;48.780;9.212;2024-03-22T03:28:59;3.10;;;2.80;;
19257;SDS011;9763;48.780;9.212;2024-03-22T03:32:22;2.87;;;2.67;;
19257;SDS011;9763;48.780;9.212;2024-03-22T03:35:46;4.00;;;2.70;;
19257;SDS011;9763;48.780;9.212;2024-03-22T03:39:07;3.10;;;2.80;;
19257;SDS011;9763;48.780;9.212;2024-03-22T03:42:30;3.03;;;2.70;;
19257;SDS011;9763;48.780;9.212;2024-03-22T03:45:52;2.90;;;2.50;;
19257;SDS011;9763;48.780;9.212;2024-03-22T03:49:16;3.23;;;2.90;;
19257;SDS011;9763;48.780;9.212;2024-03-22T03:52:39;3.30;;;2.97;;
19257;SDS011;9763;48.780;9.212;2024-03-22T03:56:02;3.70;;;3.00;;
19257;SDS011;9763;48.780;9.212;2024-03-22T03:59:25;2.87;;;2.63;;
19257;SDS011;9763;48.780;9.212;2024-03-22T04:02:48;3.47;;;2.60;;
19257;SDS011;9763;48.780;9.212;2024-03-22T04:06:12;3.70;;;3.13;;
19257;SDS011;9763;48.780;9.212;2024-03-22T04:09:35;4.47;;;2.87;;
19257;SDS011;9763;48.780;9.212;2024-03-22T04:12:57;4.23;;;2.70;;
19257;SDS011;9763;48.780;9.212;2024-03-22T04:16:20;3.50;;;3.10;;
19257;SDS011;9763;48.780;9.212;2024-03-22T04:19:43;4.43;;;3.10;;
19257;SDS011;9763;48.780;9.212;2024-03-22T04:23:07;3.00;;;2.70;;
19257;SDS011;9763;48.780;9.212;2024-03-22T04:26:29;4.07;;;3.43;;
19257;SDS011;9763;48.780;9.212;2024-03-22T04:29:52;6.10;;;2.80;;
19257;SDS011;9763;48.780;9.212;2024-03-22T04:33:15;2.50;;;2.30;;
19257;SDS011;9763;48.780;9.212;2024-03-22T04:36:36;3.60;;;3.30;;
19257;SDS011;9763;48.780;9.212;2024-03-22T04:40:01;3.50;;;3.20;;
19257;SDS011;9763;48.780;9.212;2024-03-22T04:43:24;3.27;;;2.97;;
19257;SDS011;9763;48.780;9.212;2024-03-22T04:46:47;3.70;;;3.40;;
19257;SDS011;9763;48.780;9.212;2024-03-22T04:50:10;4.27;;;3.50;;
19257;SDS011;9763;48.780;9.212;2024-03-22T04:53:33;3.40;;;3.10;;
19257;SDS011;9763;48.780;9.212;2024-03-22T04:56:58;3.30;;;3.00;;
19257;SDS011;9763;48.780;9.212;2024-03-22T05:00:21;3.43;;;3.13;;
19257;SDS011;9763;48.780;9.212;2024-03-22T05:03:42;3.27;;;2.70;;
19257;SDS011;9763;48.780;9.212;2024-03-22T05:07:05;3.13;;;2.83;;
19257;SDS011;9763;48.780;9.212;2024-03-22T05:10:28;3.57;;;3.27;;
19257;SDS011;9763;48.780;9.212;2024-03-22T05:13:51;3.33;;;3.03;;
19257;SDS011;9763;48.780;9.212;2024-03-22T05:17:14;3.70;;;3.30;;
19257;SDS011;9763;48.780;9.212;2024-03-22T05:20:36;3.53;;;3.20;;
19257;SDS011;9763;48.780;9.212;2024-03-22T05:23:59;3.00;;;2.73;;
19257;SDS011;9763;48.780;9.212;2024-03-22T05:27:20;3.00;;;2.20;;
19257;SDS011;9763;48.780;9.212;2024-03-22T05:30:45;3.47;;;3.17;;
19257;SDS011;9763;48.780;9.212;2024-03-22T05:34:08;3.13;;;2.80;;
19257;SDS011;9763;48.780;9.212;2024-03-22T05:37:30;3.73;;;3.30;;
19257;SDS011;9763;48.780;9.212;2024-03-22T05:40:54;3.33;;;2.70;;
19257;SDS011;9763;48.780;9.212;2024-03-22T05:44:16;3.57;;;3.00;;
19257;SDS011;9763;48.780;9.212;2024-03-22T05:47:40;3.43;;;3.10;;
19257;SDS011;9763;48.780;9.212;2024-03-22T05:51:02;3.00;;;2.70;;
19257;SDS011;9763;48.780;9.212;2024-03-22T05:54:24;3.40;;;3.10;;
19257;SDS011;9763;48.780;9.212;2024-03-22T05:57:47;4.13;;;3.30;;
19257;SDS011;9763;48.780;9.212;2024-03-22T06:01:11;3.90;;;3.60;;
19257;SDS011;9763;48.780;9.212;2024-03-22T06:04:35;4.30;;;3.70;;
19257;SDS011;9763;48.780;9.212;2024-03-22T06:07:57;3.63;;;3.33;;
19257;SDS011;9763;48.780;9.212;2024-03-22T06:11:19;3.37;;;3.07;;
19257;SDS011;9763;48.780;9.212;2024-03-22T06:14:42;3.60;;;3.30;;
19257;SDS011;9763;48.780;9.212;2024-03-22T06:18:05;3.20;;;2.90;;
19257;SDS011;9763;48.780;9.212;2024-03-22T06:21:29;4.13;;;3.77;;
19257;SDS011;9763;48.780;9.212;2024-03-22T06:24:50;3.70;;;3.40;;
19257;SDS011;9763;48.780;9.212;2024-03-22T06:28:14;4.20;;;3.80;;
19257;SDS011;9763;48.780;9.212;2024-03-22T06:31:36;6.13;;;3.77;;
19257;SDS011;9763;48.780;9.212;2024-03-22T06:34:59;5.30;;;3.73;;
19257;SDS011;9763;48.780;9.212;2024-03-22T06:38:22;3.20;;;2.90;;
19257;SDS011;9763;48.780;9.212;2024-03-22T06:41:44;3.77;;;3.37;;
19257;SDS011;9763;48.780;9.212;2024-03-22T06:45:07;3.50;;;3.20;;
19257;SDS011;9763;48.780;9.212;2024-03-22T06:48:31;4.10;;;2.97;;
19257;SDS011;9763;48.780;9.212;2024-03-22T06:51:54;3.57;;;3.27;;
19257;SDS011;9763;48.780;9.212;2024-03-22T06:55:17;3.27;;;2.97;;
19257;SDS011;9763;48.780;9.212;2024-03-22T06:58:40;3.97;;;3.57;;
19257;SDS011;9763;48.780;9.212;2024-03-22T07:02:02;5.87;;;3.90;;
19257;SDS011;9763;48.780;9.212;2024-03-22T07:05:25;3.80;;;3.50;;
19257;SDS011;9763;48.780;9.212;2024-03-22T07:08:47;3.60;;;3.30;;
19257;SDS011;9763;48.780;9.212;2024-03-22T07:12:11;4.00;;;3.60;;
19257;SDS011;9763;48.780;9.212;2024-03-22T07:15:33;3.43;;;3.13;;
19257;SDS011;9763;48.780;9.212;2024-03-22T07:18:56;3.50;;;3.20;;
19257;SDS011;9763;48.780;9.212;2024-03-22T07:22:19;4.63;;;3.30;;
19257;SDS011;9763;48.780;9.212;2024-03-22T07:25:42;3.57;;;3.27;;
19257;SDS011;9763;48.780;9.212;2024-03-22T07:29:07;3.30;;;3.00;;
19257;SDS011;9763;48.780;9.212;2024-03-22T07:32:29;4.00;;;3.63;;
19257;SDS011;9763;48.780;9.212;2024-03-22T07:35:52;3.70;;;3.40;;
19257;SDS011;9763;48.780;9.212;2024-03-22T07:39:15;3.87;;;3.57;;
19257;SDS011;9763;48.780;9.212;2024-03-22T07:42:37;4.80;;;3.47;;
19257;SDS011;9763;48.780;9.212;2024-03-22T07:46:01;3.83;;;3.13;;
19257;SDS011;9763;48.780;9.212;2024-03-22T07:49:23;4.10;;;3.80;;
19257;SDS011;9763;48.780;9.212;2024-03-22T07:52:46;5.80;;;4.20;;
19257;SDS011;9763;48.780;9.212;2024-03-22T07:56:08;4.93;;;3.73;;
19257;SDS011;9763;48.780;9.212;2024-03-22T07:59:30;3.93;;;3.53;;
19257;SDS011;9763;48.780;9.212;2024-03-22T08:02:55;4.10;;;3.70;;
19257;SDS011;9763;48.780;9.212;2024-03-22T08:06:17;5.03;;;4.00;;
19257;SDS011;9763;48.780;9.212;2024-03-22T08:09:39;4.17;;;3.87;;
19257;SDS011;9763;48.780;9.212;2024-03-22T08:13:02;6.13;;;3.80;;
19257;SDS011;9763;48.780;9.212;2024-03-22T08:16:25;3.90;;;3.50;;
19257;SDS011;9763;48.780;9.212;2024-03-22T08:19:49;4.40;;;4.00;;
19257;SDS011;9763;48.780;9.212;2024-03-22T08:23:11;4.40;;;4.00;;
19257;SDS011;9763;48.780;9.212;2024-03-22T08:26:33;4.30;;;3.90;;
19257;SDS011;9763;48.780;9.212;2024-03-22T08:29:55;4.53;;;4.13;;
19257;SDS011;9763;48.780;9.212;2024-03-22T08:33:18;4.17;;;3.77;;
19257;SDS011;9763;48.780;9.212;2024-03-22T08:36:41;3.87;;;3.57;;
19257;SDS011;9763;48.780;9.212;2024-03-22T08:40:04;5.20;;;3.90;;
19257;SDS011;9763;48.780;9.212;2024-03-22T08:43:28;3.50;;;3.17;;
19257;SDS011;9763;48.780;9.212;2024-03-22T08:46:50;5.00;;;3.57;;
19257;SDS011;9763;48.780;9.212;2024-03-22T08:50:13;4.97;;;3.70;;
19257;SDS011;9763;48.780;9.212;2024-03-22T08:53:37;4.47;;;4.07;;
19257;SDS011;9763;48.780;9.212;2024-03-22T08:57:00;3.50;;;3.20;;
19257;SDS011;9763;48.780;9.212;2024-03-22T09:00:22;3.77;;;3.47;;
19257;SDS011;9763;48.780;9.212;2024-03-22T09:03:44;4.70;;;3.77;;
19257;SDS011;9763;48.780;9.212;2024-03-22T09:07:07;4.03;;;3.07;;
19257;SDS011;9763;48.780;9.212;2024-03-22T09:10:31;3.70;;;3.40;;
19257;SDS011;9763;48.780;9.212;2024-03-22T09:13:54;4.07;;;3.67;;
19257;SDS011;9763;48.780;9.212;2024-03-22T09:17:16;4.50;;;3.77;;
19257;SDS011;9763;48.780;9.212;2024-03-22T09:20:38;4.03;;;3.53;;
19257;SDS011;9763;48.780;9.212;2024-03-22T09:24:01;3.20;;;2.90;;
19257;SDS011;9763;48.780;9.212;2024-03-22T09:27:25;4.80;;;3.33;;
19257;SDS011;9763;48.780;9.212;2024-03-22T09:30:48;3.70;;;3.40;;
19257;SDS011;9763;48.780;9.212;2024-03-22T09:34:11;4.57;;;3.40;;
19257;SDS011;9763;48.780;9.212;2024-03-22T09:37:36;4.07;;;3.40;;
19257;SDS011;9763;48.780;9.212;2024-03-22T09:40:59;3.60;;;3.30;;
19257;SDS011;9763;48.780;9.212;2024-03-22T09:44:23;3.67;;;3.37;;
19257;SDS011;9763;48.780;9.212;2024-03-22T09:47:49;3.90;;;3.13;;
19257;SDS011;9763;48.780;9.212;2024-03-22T09:51:16;3.03;;;2.20;;
19257;SDS011;9763;48.780;9.212;2024-03-22T09:54:38;2.63;;;2.20;;
19257;SDS011;9763;48.780;9.212;2024-03-22T09:58:02;2.67;;;2.10;;
19257;SDS011;9763;48.780;9.212;2024-03-22T10:01:26;2.90;;;2.13;;
19257;SDS011;9763;48.780;9.212;2024-03-22T10:04:51;4.50;;;2.27;;
19257;SDS011;9763;48.780;9.212;2024-03-22T10:08:13;2.77;;;2.27;;
19257;SDS011;9763;48.780;9.212;2024-03-22T10:11:35;2.40;;;2.03;;
19257;SDS011;9763;48.780;9.212;2024-03-22T10:14:58;2.27;;;1.57;;
19257;SDS011;9763;48.780;9.212;2024-03-22T10:18:21;3.43;;;1.90;;
19257;SDS011;9763;48.780;9.212;2024-03-22T10:21:44;2.30;;;1.70;;
19257;SDS011;9763;48.780;9.212;2024-03-22T10:25:06;2.53;;;2.27;;
19257;SDS011;9763;48.780;9.212;2024-03-22T10:28:29;1.77;;;1.60;;
19257;SDS011;9763;48.780;9.212;2024-03-22T10:31:53;2.50;;;1.80;;
19257;SDS011;9763;48.780;9.212;2024-03-22T10:35:17;2.77;;;1.83;;
19257;SDS011;9763;48.780;9.212;2024-03-22T10:38:40;2.17;;;1.90;;
19257;SDS011;9763;48.780;9.212;2024-03-22T10:42:06;2.67;;;1.93;;
19257;SDS011;9763;48.780;9.212;2024-03-22T10:45:32;3.17;;;2.03;;
19257;SDS011;9763;48.780;9.212;2024-03-22T10:48:56;2.40;;;1.80;;
19257;SDS011;9763;48.780;9.212;2024-03-22T10:52:21;2.20;;;1.70;;
19257;SDS011;9763;48.780;9.212;2024-03-22T10:55:45;2.50;;;1.70;;
19257;SDS011;9763;48.780;9.212;2024-03-22T10:59:12;1.70;;;1.60;;
19257;SDS011;9763;48.780;9.212;2024-03-22T11:02:35;3.13;;;1.70;;
19257;SDS011;9763;48.780;9.212;2024-03-22T11:05:58;2.93;;;2.00;;
19257;SDS011;9763;48.780;9.212;2024-03-22T11:09:22;1.90;;;1.60;;
19257;SDS011;9763;48.780;9.212;2024-03-22T11:12:46;2.00;;;1.60;;
19257;SDS011;9763;48.780;9.212;2024-03-22T11:16:10;2.77;;;1.40;;
19257;SDS011;9763;48.780;9.212;2024-03-22T11:19:32;2.53;;;1.90;;
19257;SDS011;9763;48.780;9.212;2024-03-22T11:22:55;3.13;;;1.70;;
19257;SDS011;9763;48.780;9.212;2024-03-22T11:26:18;1.87;;;1.60;;
19257;SDS011;9763;48.780;9.212;2024-03-22T11:29:41;1.70;;;1.30;;
19257;SDS011;9763;48.780;9.212;2024-03-22T11:33:04;2.00;;;1.57;;
19257;SDS011;9763;48.780;9.212;2024-03-22T11:36:27;1.80;;;1.60;;
19257;SDS011;9763;48.780;9.212;2024-03-22T11:39:49;2.30;;;1.80;;
19257;SDS011;9763;48.780;9.212;2024-03-22T11:43:12;2.67;;;1.40;;
19257;SDS011;9763;48.780;9.212;2024-03-22T11:46:37;2.17;;;1.87;;
19257;SDS011;9763;48.780;9.212;2024-03-22T11:49:59;2.23;;;2.03;;
19257;SDS011;9763;48.780;9.212;2024-03-22T11:53:23;2.40;;;1.80;;
19257;SDS011;9763;48.780;9.212;2024-03-22T11:56:45;2.63;;;2.00;;
19257;SDS011;9763;48.780;9.212;2024-03-22T12:00:10;1.70;;;1.50;;
19257;SDS011;9763;48.780;9.212;2024-03-22T12:03:35;2.17;;;1.63;;
19257;SDS011;9763;48.780;9.212;2024-03-22T12:06:59;2.83;;;1.90;;
19257;SDS011;9763;48.780;9.212;2024-03-22T12:10:22;1.80;;;1.50;;
19257;SDS011;9763;48.780;9.212;2024-03-22T12:13:44;2.00;;;1.50;;
19257;SDS011;9763;48.780;9.212;2024-03-22T12:17:08;2.60;;;1.83;;
19257;SDS011;9763;48.780;9.212;2024-03-22T12:20:30;2.37;;;1.50;;
19257;SDS011;9763;48.780;9.212;2024-03-22T12:23:53;2.67;;;1.60;;
19257;SDS011;9763;48.780;9.212;2024-03-22T12:27:15;1.70;;;1.60;;
19257;SDS011;9763;48.780;9.212;2024-03-22T12:30:38;1.83;;;1.60;;
19257;SDS011;9763;48.780;9.212;2024-03-22T12:34:01;2.00;;;1.50;;
19257;SDS011;9763;48.780;9.212;2024-03-22T12:37:24;2.53;;;1.83;;
19257;SDS011;9763;48.780;9.212;2024-03-22T12:40:47;2.27;;;1.70;;
19257;SDS011;9763;48.780;9.212;2024-03-22T12:44:09;2.20;;;1.50;;
19257;SDS011;9763;48.780;9.212;2024-03-22T12:47:32;2.37;;;1.70;;
19257;SDS011;9763;48.780;9.212;2024-03-22T12:50:55;2.43;;;1.43;;
19257;SDS011;9763;48.780;9.212;2024-03-22T12:54:17;1.70;;;1.40;;
19257;SDS011;9763;48.780;9.212;2024-03-22T12:57:40;2.67;;;1.80;;
19257;SDS011;9763;48.780;9.212;2024-03-22T13:01:04;1.90;;;1.40;;
19257;SDS011;9763;48.780;9.212;2024-03-22T13:04:27;4.07;;;1.37;;
19257;SDS011;9763;48.780;9.212;2024-03-22T13:07:52;1.70;;;1.37;;
19257;SDS011;9763;48.780;9.212;2024-03-22T13:11:13;2.63;;;2.00;;
19257;SDS011;9763;48.780;9.212;2024-03-22T13:14:38;2.00;;;1.53;;
19257;SDS011;9763;48.780;9.212;2024-03-22T13:18:00;2.20;;;1.50;;
19257;SDS011;9763;48.780;9.212;2024-03-22T13:21:23;1.83;;;1.40;;
19257;SDS011;9763;48.780;9.212;2024-03-22T13:24:47;2.10;;;1.70;;
19257;SDS011;9763;48.780;9.212;2024-03-22T13:28:11;1.97;;;1.30;;
19257;SDS011;9763;48.780;9.212;2024-03-22T13:31:33;1.50;;;1.20;;
19257;SDS011;9763;48.780;9.212;2024-03-22T13:34:55;1.60;;;1.33;;
19257;SDS011;9763;48.780;9.212;2024-03-22T13:38:17;3.10;;;1.33;;
19257;SDS011;9763;48.780;9.212;2024-03-22T13:41:42;2.00;;;1.20;;
19257;SDS011;9763;48.780;9.212;2024-03-22T13:45:06;1.70;;;1.23;;
19257;SDS011;9763;48.780;9.212;2024-03-22T13:48:28;1.80;;;1.30;;
19257;SDS011;9763;48.780;9.212;2024-03-22T13:51:51;1.90;;;1.33;;
19257;SDS011;9763;48.780;9.212;2024-03-22T13:55:14;2.10;;;1.63;;
19257;SDS011;9763;48.780;9.212;2024-03-22T13:58:38;1.67;;;1.40;;
19257;SDS011;9763;48.780;9.212;2024-03-22T14:02:00;2.87;;;1.50;;
19257;SDS011;9763;48.780;9.212;2024-03-22T14:05:23;1.70;;;1.30;;
19257;SDS011;9763;48.780;9.212;2024-03-22T14:08:47;1.63;;;1.20;;
19257;SDS011;9763;48.780;9.212;2024-03-22T14:12:09;1.70;;;1.30;;
19257;SDS011;9763;48.780;9.212;2024-03-22T14:15:33;2.17;;;1.50;;
19257;SDS011;9763;48.780;9.212;2024-03-22T14:18:56;4.73;;;1.50;;
19257;SDS011;9763;48.780;9.212;2024-03-22T14:22:19;3.40;;;1.60;;
19257;SDS011;9763;48.780;9.212;2024-03-22T14:25:41;1.97;;;1.60;;
19257;SDS011;9763;48.780;9.212;2024-03-22T14:29:08;1.97;;;1.60;;
19257;SDS011;9763;48.780;9.212;2024-03-22T14:32:33;2.00;;;1.50;;
19257;SDS011;9763;48.780;9.212;2024-03-22T14:35:56;3.27;;;1.43;;
19257;SDS011;9763;48.780;9.212;2024-03-22T14:39:18;1.70;;;1.30;;
19257;SDS011;9763;48.780;9.212;2024-03-22T14:42:41;2.27;;;1.10;;
19257;SDS011;9763;48.780;9.212;2024-03-22T14:46:04;2.10;;;1.30;;
19257;SDS011;9763;48.780;9.212;2024-03-22T14:49:29;1.60;;;1.40;;
19257;SDS011;9763;48.780;9.212;2024-03-22T14:52:50;3.10;;;1.30;;
19257;SDS011;9763;48.780;9.212;2024-03-22T14:56:13;1.93;;;1.23;;
19257;SDS011;9763;48.780;9.212;2024-03-22T14:59:36;2.97;;;1.20;;
19257;SDS011;9763;48.780;9.212;2024-03-22T15:02:57;2.73;;;1.30;;
19257;SDS011;9763;48.780;9.212;2024-03-22T15:06:22;2.17;;;1.00;;
19257;SDS011;9763;48.780;9.212;2024-03-22T15:09:44;1.50;;;1.20;;
19257;SDS011;9763;48.780;9.212;2024-03-22T15:13:06;2.37;;;1.20;;
19257;SDS011;9763;48.780;9.212;2024-03-22T15:16:29;2.10;;;1.13;;
19257;SDS011;9763;48.780;9.212;2024-03-22T15:19:50;1.80;;;1.20;;
19257;SDS011;9763;48.780;9.212;2024-03-22T15:23:14;1.40;;;1.10;;
19257;SDS011;9763;48.780;9.212;2024-03-22T15:26:38;1.50;;;0.97;;
19257;SDS011;9763;48.780;9.212;2024-03-22T15:30:00;1.40;;;1.00;;
19257;SDS011;9763;48.780;9.212;2024-03-22T15:33:22;1.50;;;1.00;;
19257;SDS011;9763;48.780;9.212;2024-03-22T15:36:45;1.37;;;1.03;;
19257;SDS011;9763;48.780;9.212;2024-03-22T15:40:09;1.30;;;0.80;;
19257;SDS011;9763;48.780;9.212;2024-03-22T15:43:31;1.30;;;0.90;;
19257;SDS011;9763;48.780;9.212;2024-03-22T15:46:54;2.10;;;1.10;;
19257;SDS011;9763;48.780;9.212;2024-03-22T15:50:20;1.40;;;1.00;;
19257;SDS011;9763;48.780;9.212;2024-03-22T15:53:43;1.50;;;1.00;;
19257;SDS011;9763;48.780;9.212;2024-03-22T15:57:07;1.30;;;0.90;;
19257;SDS011;9763;48.780;9.212;2024-03-22T16:00:30;1.43;;;1.00;;
19257;SDS011;9763;48.780;9.212;2024-03-22T16:03:53;1.30;;;0.90;;
19257;SDS011;9763;48.780;9.212;2024-03-22T16:07:16;1.40;;;1.00;;
19257;SDS011;9763;48.780;9.212;2024-03-22T16:10:37;3.10;;;1.17;;
19257;SDS011;9763;48.780;9.212;2024-03-22T16:14:01;1.93;;;1.10;;
19257;SDS011;9763;48.780;9.212;2024-03-22T16:17:24;2.27;;;1.00;;
19257;SDS011;9763;48.780;9.212;2024-03-22T16:20:48;2.10;;;1.20;;
19257;SDS011;9763;48.780;9.212;2024-03-22T16:24:11;1.50;;;1.17;;
19257;SDS011;9763;48.780;9.212;2024-03-22T16:27:34;1.60;;;1.27;;
19257;SDS011;9763;48.780;9.212;2024-03-22T16:30:57;1.50;;;1.00;;
19257;SDS011;9763;48.780;9.212;2024-03-22T16:34:21;1.67;;;1.10;;
19257;SDS011;9763;48.780;9.212;2024-03-22T16:37:44;1.70;;;1.40;;
19257;SDS011;9763;48.780;9.212;2024-03-22T16:41:05;3.73;;;2.17;;
19257;SDS011;9763;48.780;9.212;2024-03-22T16:44:29;4.10;;;3.17;;
19257;SDS011;9763;48.780;9.212;2024-03-22T16:47:53;2.93;;;2.17;;
19257;SDS011;9763;48.780;9.212;2024-03-22T16:51:14;2.00;;;1.73;;
19257;SDS011;9763;48.780;9.212;2024-03-22T16:54:37;2.40;;;1.60;;
19257;SDS011;9763;48.780;9.212;2024-03-22T16:58:00;1.60;;;1.37;;
19257;SDS011;9763;48.780;9.212;2024-03-22T17:01:24;2.17;;;1.37;;
19257;SDS011;9763;48.780;9.212;2024-03-22T17:04:47;2.37;;;1.27;;
19257;SDS011;9763;48.780;9.212;2024-03-22T17:08:10;1.80;;;1.13;;
19257;SDS011;9763;48.780;9.212;2024-03-22T17:11:33;1.60;;;1.33;;
19257;SDS011;9763;48.780;9.212;2024-03-22T17:14:55;3.50;;;1.87;;
19257;SDS011;9763;48.780;9.212;2024-03-22T17:18:17;1.50;;;1.30;;
19257;SDS011;9763;48.780;9.212;2024-03-22T17:21:41;1.90;;;1.50;;
19257;SDS011;9763;48.780;9.212;2024-03-22T17:25:03;1.50;;;1.20;;
19257;SDS011;9763;48.780;9.212;2024-03-22T17:28:26;1.43;;;1.13;;
19257;SDS011;9763;48.780;9.212;2024-03-22T17:31:48;1.47;;;1.20;;
19257;SDS011;9763;48.780;9.212;2024-03-22T17:35:10;3.30;;;1.27;;
19257;SDS011;9763;48.780;9.212;2024-03-22T17:38:34;1.53;;;1.43;;
19257;SDS011;9763;48.780;9.212;2024-03-22T17:41:59;1.73;;;1.30;;
19257;SDS011;9763;48.780;9.212;2024-03-22T17:45:23;1.90;;;1.20;;
19257;SDS011;9763;48.780;9.212;2024-03-22T17:48:46;2.37;;;1.30;;
19257;SDS011;9763;48.780;9.212;2024-03-22T17:52:08;1.50;;;1.20;;
19257;SDS011;9763;48.780;9.212;2024-03-22T17:55:32;2.80;;;1.53;;
19257;SDS011;9763;48.780;9.212;2024-03-22T17:58:55;2.10;;;1.50;;
19257;SDS011;9763;48.780;9.212;2024-03-22T18:02:16;2.00;;;1.50;;
19257;SDS011;9763;48.780;9.212;2024-03-22T18:05:40;2.17;;;1.60;;
19257;SDS011;9763;48.780;9.212;2024-03-22T18:09:02;2.00;;;1.67;;
19257;SDS011;9763;48.780;9.212;2024-03-22T18:12:26;1.90;;;1.70;;
19257;SDS011;9763;48.780;9.212;2024-03-22T18:15:49;1.80;;;1.30;;
19257;SDS011;9763;48.780;9.212;2024-03-22T18:19:10;1.63;;;1.10;;
19257;SDS011;9763;48.780;9.212;2024-03-22T18:22:33;1.50;;;1.20;;
19257;SDS011;9763;48.780;9.212;2024-03-22T18:25:55;2.17;;;1.30;;
19257;SDS011;9763;48.780;9.212;2024-03-22T18:29:20;2.23;;;1.40;;
19257;SDS011;9763;48.780;9.212;2024-03-22T18:32:43;1.50;;;1.20;;
19257;SDS011;9763;48.780;9.212;2024-03-22T18:36:06;2.10;;;1.20;;
19257;SDS011;9763;48.780;9.212;2024-03-22T18:39:29;1.53;;;1.23;;
19257;SDS011;9763;48.780;9.212;2024-03-22T18:42:53;1.63;;;1.20;;
19257;SDS011;9763;48.780;9.212;2024-03-22T18:46:17;1.40;;;1.13;;
19257;SDS011;9763;48.780;9.212;2024-03-22T18:49:40;1.43;;;1.20;;
19257;SDS011;9763;48.780;9.212;2024-03-22T18:53:03;2.60;;;1.20;;
19257;SDS011;9763;48.780;9.212;2024-03-22T18:56:26;1.83;;;1.40;;
19257;SDS011;9763;48.780;9.212;2024-03-22T18:59:48;1.70;;;1.30;;
19257;SDS011;9763;48.780;9.212;2024-03-22T19:03:12;2.87;;;1.13;;
19257;SDS011;9763;48.780;9.212;2024-03-22T19:06:34;1.67;;;1.20;;
19257;SDS011;9763;48.780;9.212;2024-03-22T19:09:57;2.83;;;1.00;;
19257;SDS011;9763;48.780;9.212;2024-03-22T19:13:18;1.47;;;1.20;;
19257;SDS011;9763;48.780;9.212;2024-03-22T19:16:41;1.83;;;1.20;;
19257;SDS011;9763;48.780;9.212;2024-03-22T19:20:06;1.80;;;1.40;;
19257;SDS011;9763;48.780;9.212;2024-03-22T19:23:30;1.63;;;1.30;;
19257;SDS011;9763;48.780;9.212;2024-03-22T19:26:52;2.10;;;1.30;;
19257;SDS011;9763;48.780;9.212;2024-03-22T19:30:15;1.50;;;1.20;;
19257;SDS011;9763;48.780;9.212;2024-03-22T19:33:37;1.90;;;1.30;;
19257;SDS011;9763;48.780;9.212;2024-03-22T19:37:02;3.70;;;1.60;;
19257;SDS011;9763;48.780;9.212;2024-03-22T19:40:25;1.80;;;1.50;;
19257;SDS011;9763;48.780;9.212;2024-03-22T19:43:47;2.10;;;1.83;;
19257;SDS011;9763;48.780;9.212;2024-03-22T19:47:10;2.70;;;1.53;;
19257;SDS011;9763;48.780;9.212;2024-03-22T19:50:33;2.10;;;1.77;;
19257;SDS011;9763;48.780;9.212;2024-03-22T19:53:56;2.10;;;1.60;;
19257;SDS011;9763;48.780;9.212;2024-03-22T19:57:18;2.13;;;1.70;;
19257;SDS011;9763;48.780;9.212;2024-03-22T20:00:41;3.90;;;1.80;;
19257;SDS011;9763;48.780;9.212;2024-03-22T20:04:03;1.90;;;1.50;;
19257;SDS011;9763;48.780;9.212;2024-03-22T20:07:26;2.10;;;1.47;;
19257;SDS011;9763;48.780;9.212;2024-03-22T20:10:49;1.60;;;1.40;;
19257;SDS011;9763;48.780;9.212;2024-03-22T20:14:12;2.07;;;1.30;;
19257;SDS011;9763;48.780;9.212;2024-03-22T20:17:34;1.50;;;1.23;;
19257;SDS011;9763;48.780;9.212;2024-03-22T20:20:57;1.87;;;1.23;;
19257;SDS011;9763;48.780;9.212;2024-03-22T20:24:19;1.40;;;1.23;;
19257;SDS011;9763;48.780;9.212;2024-03-22T20:27:43;1.93;;;1.30;;
19257;SDS011;9763;48.780;9.212;2024-03-22T20:31:06;1.60;;;1.40;;
19257;SDS011;9763;48.780;9.212;2024-03-22T20:34:29;1.97;;;1.60;;
